Time;durP1;ratioP1;P1;durP2;ratioP2;P2;SDS_P1;SDS_P2;PMS_P1;PMS_P2;Temp;Humidity;BMP_temperature;BMP_pressure;BME280_temperature;BME280_humidity;BME280_pressure;Samples;Min_cycle;Max_cycle;Signal;HPM_P1;HPM_P2
2023/05/01 00:01:24;;;;;;;8.82;6.05;;;;;;;12.01;100.00;100023.41;5126084;27;20061;-34
2023/05/01 00:03:49;;;;;;;8.75;6.57;;;;;;;11.95;100.00;100021.63;5126349;27;20115;-33
2023/05/01 00:06:14;;;;;;;13.02;7.03;;;;;;;11.93;100.00;100029.06;5126007;28;20786;-33
2023/05/01 00:08:40;;;;;;;13.25;8.35;;;;;;;11.92;100.00;100032.78;5126111;28;20047;-33
2023/05/01 00:11:10;;;;;;;12.98;7.25;;;;;;;11.90;100.00;100024.16;5128786;27;20026;-34
2023/05/01 00:13:35;;;;;;;9.77;6.53;;;;;;;11.96;100.00;100041.16;5130110;27;20031;-33
2023/05/01 00:16:00;;;;;;;8.55;6.13;;;;;;;11.96;100.00;100038.47;5130152;27;20969;-34
2023/05/01 00:18:29;;;;;;;9.32;6.15;;;;;;;12.11;100.00;100044.19;5129877;27;20045;-33
2023/05/01 00:20:54;;;;;;;9.13;6.32;;;;;;;12.14;100.00;100034.94;5130088;27;20073;-34
2023/05/01 00:23:19;;;;;;;9.57;5.93;;;;;;;12.12;100.00;100013.75;5129805;27;20047;-34
2023/05/01 00:25:45;;;;;;;7.88;5.95;;;;;;;12.24;100.00;100027.16;5129767;27;20030;-33
2023/05/01 00:28:11;;;;;;;9.80;6.47;;;;;;;12.34;100.00;100027.41;5129742;27;20243;-33
2023/05/01 00:30:36;;;;;;;8.90;5.93;;;;;;;12.53;100.00;100024.63;5129515;27;20111;-33
2023/05/01 00:33:02;;;;;;;8.02;5.60;;;;;;;12.19;100.00;100017.13;5129689;27;20027;-34
2023/05/01 00:35:29;;;;;;;9.25;5.75;;;;;;;12.12;100.00;100018.31;5129491;27;20030;-33
2023/05/01 00:37:54;;;;;;;8.65;6.38;;;;;;;12.18;100.00;100020.06;5129830;27;20118;-35
2023/05/01 00:40:20;;;;;;;10.27;5.97;;;;;;;12.31;100.00;100017.16;5129690;27;20083;-33
2023/05/01 00:42:45;;;;;;;10.93;5.95;;;;;;;12.60;100.00;100030.66;5129539;27;20050;-34
2023/05/01 00:45:11;;;;;;;8.40;6.10;;;;;;;12.48;100.00;100021.81;5129140;27;20066;-34
2023/05/01 00:47:37;;;;;;;10.50;6.32;;;;;;;12.35;100.00;100021.00;5129428;27;20106;-33
2023/05/01 00:50:04;;;;;;;9.75;6.40;;;;;;;12.53;100.00;100029.97;5129551;27;20106;-35
2023/05/01 00:52:30;;;;;;;9.35;7.00;;;;;;;12.70;100.00;100025.53;5129259;27;20027;-34
2023/05/01 00:54:56;;;;;;;10.10;6.18;;;;;;;12.67;100.00;100036.72;5129417;27;20031;-34
2023/05/01 00:57:22;;;;;;;9.27;6.57;;;;;;;12.70;100.00;100036.22;5128868;27;20027;-35
2023/05/01 00:59:48;;;;;;;9.05;5.93;;;;;;;12.62;100.00;100034.72;5129493;27;20060;-35
2023/05/01 01:02:14;;;;;;;8.60;6.03;;;;;;;12.71;100.00;100037.03;5128785;27;20411;-33
2023/05/01 01:04:42;;;;;;;10.52;6.82;;;;;;;12.61;100.00;100033.09;5129006;27;20063;-33
2023/05/01 01:07:38;;;;;;;10.05;5.93;;;;;;;12.26;100.00;100023.19;5128937;27;20053;-34
2023/05/01 01:10:09;;;;;;;8.52;6.05;;;;;;;12.19;100.00;100029.69;5122362;27;20043;-33
2023/05/01 01:13:16;;;;;;;8.88;6.38;;;;;;;12.02;100.00;100030.34;5128941;27;20047;-34
2023/05/01 01:15:58;;;;;;;8.45;6.22;;;;;;;12.40;100.00;100031.81;5128590;27;20107;-35
2023/05/01 01:18:49;;;;;;;10.02;6.40;;;;;;;12.57;100.00;100048.00;5128983;27;20061;-33
2023/05/01 01:21:27;;;;;;;10.35;6.50;;;;;;;12.62;100.00;100044.59;5127562;27;20086;-33
2023/05/01 01:24:23;;;;;;;10.10;7.07;;;;;;;12.49;100.00;100040.31;5128834;27;20039;-32
2023/05/01 01:27:18;;;;;;;8.80;6.95;;;;;;;12.48;100.00;100049.38;5128667;27;20038;-36
2023/05/01 01:30:20;;;;;;;10.02;6.75;;;;;;;12.42;100.00;100044.94;5128934;27;20034;-33
2023/05/01 01:33:03;;;;;;;9.93;7.32;;;;;;;12.43;100.00;100042.03;5128614;27;20041;-33
2023/05/01 01:35:30;;;;;;;10.00;6.88;;;;;;;12.44;100.00;100038.34;5128506;27;20072;-34
2023/05/01 01:38:00;;;;;;;12.93;8.27;;;;;;;12.24;100.00;100035.19;5128521;27;20026;-33
2023/05/01 01:40:33;;;;;;;10.38;7.20;;;;;;;12.17;100.00;100047.81;5128742;27;20030;-33
2023/05/01 01:43:03;;;;;;;9.90;7.00;;;;;;;12.00;100.00;100051.16;5122321;27;20035;-33
2023/05/01 01:45:45;;;;;;;8.98;6.75;;;;;;;12.05;100.00;100047.78;5114028;27;20027;-33
2023/05/01 01:48:16;;;;;;;9.10;6.63;;;;;;;11.83;100.00;100036.81;5110913;27;20024;-33
2023/05/01 01:50:45;;;;;;;9.05;6.50;;;;;;;11.89;100.00;100040.44;5107490;28;20048;-34
2023/05/01 01:53:15;;;;;;;9.40;7.35;;;;;;;11.93;100.00;100025.56;5107863;28;20110;-33
2023/05/01 01:55:43;;;;;;;10.13;6.80;;;;;;;11.74;100.00;100008.75;5107451;28;20031;-34
2023/05/01 01:58:10;;;;;;;9.55;6.75;;;;;;;11.97;100.00;100038.25;5107271;28;20051;-33
2023/05/01 02:00:38;;;;;;;9.73;6.38;;;;;;;11.90;100.00;100042.88;5107609;28;20015;-33
2023/05/01 02:03:04;;;;;;;9.10;6.90;;;;;;;11.90;100.00;100029.50;5107218;28;20081;-33
2023/05/01 02:05:31;;;;;;;11.63;7.18;;;;;;;11.52;100.00;100048.50;5107573;28;20024;-34
2023/05/01 02:07:58;;;;;;;23.92;12.13;;;;;;;11.31;100.00;100039.94;5107118;28;20052;-33
2023/05/01 02:10:26;;;;;;;21.83;11.73;;;;;;;11.46;100.00;100036.84;5107258;28;20579;-34
2023/05/01 02:12:56;;;;;;;19.05;11.32;;;;;;;11.31;100.00;100028.44;5107336;28;20039;-36
2023/05/01 02:15:24;;;;;;;14.82;9.60;;;;;;;11.45;100.00;100024.56;5107293;28;21148;-34
2023/05/01 02:17:51;;;;;;;13.82;9.30;;;;;;;11.45;100.00;100040.59;5107214;28;20500;-33
2023/05/01 02:20:18;;;;;;;16.63;9.88;;;;;;;11.42;100.00;100041.03;5107206;28;20026;-33
2023/05/01 02:22:45;;;;;;;50.90;25.85;;;;;;;11.31;100.00;100045.28;5106684;27;20051;-35
2023/05/01 02:25:13;;;;;;;61.58;29.83;;;;;;;11.34;100.00;100031.47;5107076;28;20027;-35
2023/05/01 02:28:00;;;;;;;54.90;25.02;;;;;;;11.42;100.00;100041.84;5106943;28;20023;-33
2023/05/01 02:30:26;;;;;;;28.30;15.75;;;;;;;10.76;100.00;100054.06;5106759;28;20020;-33
2023/05/01 02:32:51;;;;;;;17.88;10.90;;;;;;;10.73;100.00;100049.19;5106442;28;20043;-33
2023/05/01 02:35:16;;;;;;;17.33;10.63;;;;;;;10.77;100.00;100045.03;5107269;28;20020;-33
2023/05/01 02:37:43;;;;;;;28.92;15.88;;;;;;;11.05;100.00;100046.38;5106471;28;20470;-34
2023/05/01 02:40:11;;;;;;;24.98;13.38;;;;;;;10.95;100.00;100052.25;5106596;28;20040;-34
2023/05/01 02:42:38;;;;;;;20.50;12.07;;;;;;;10.90;100.00;100056.63;5106813;28;20031;-34
2023/05/01 02:45:06;;;;;;;14.85;9.30;;;;;;;10.92;100.00;100046.53;5107074;28;20031;-34
2023/05/01 02:47:34;;;;;;;;;;;;;;;10.44;100.00;100062.16;5107217;28;20548;-34
2023/05/01 02:50:01;;;;;;;21.20;11.85;;;;;;;10.32;100.00;100058.56;5106239;28;19903;-33
2023/05/01 02:52:28;;;;;;;22.40;12.20;;;;;;;10.45;100.00;100052.31;5106419;28;20040;-35
2023/05/01 02:54:55;;;;;;;39.00;19.45;;;;;;;10.68;100.00;100073.03;5106231;28;20034;-33
2023/05/01 02:57:21;;;;;;;34.50;18.85;;;;;;;10.89;100.00;100068.31;5106263;28;20431;-34
2023/05/01 02:59:46;;;;;;;29.92;14.85;;;;;;;10.68;100.00;100065.03;5106552;28;20516;-33
2023/05/01 03:02:12;;;;;;;21.45;12.73;;;;;;;10.82;100.00;100069.19;5106059;28;20110;-34
2023/05/01 03:04:37;;;;;;;28.48;16.05;;;;;;;10.15;100.00;100060.09;5106492;28;20466;-33
2023/05/01 03:07:03;;;;;;;31.25;16.52;;;;;;;10.11;100.00;100073.03;5106232;28;20016;-34
2023/05/01 03:09:30;;;;;;;37.10;17.45;;;;;;;10.43;100.00;100075.72;5106113;28;20048;-34
2023/05/01 03:11:56;;;;;;;24.40;14.68;;;;;;;10.41;100.00;100078.59;5106056;28;20412;-34
2023/05/01 03:14:21;;;;;;;22.75;13.02;;;;;;;10.11;100.00;100081.03;5106325;28;20023;-34
2023/05/01 03:16:47;;;;;;;17.58;10.73;;;;;;;10.11;100.00;100086.34;5106263;28;20760;-33
2023/05/01 03:19:12;;;;;;;16.67;10.05;;;;;;;9.99;100.00;100091.56;5105739;28;20034;-33
2023/05/01 03:21:38;;;;;;;12.60;8.57;;;;;;;9.69;100.00;100093.19;5106217;28;20036;-33
2023/05/01 03:24:03;;;;;;;13.27;7.43;;;;;;;9.78;100.00;100084.69;5105874;28;20081;-34
2023/05/01 03:26:29;;;;;;;12.95;9.05;;;;;;;9.95;100.00;100078.88;5106298;28;20484;-33
2023/05/01 03:28:57;;;;;;;12.73;8.32;;;;;;;10.14;100.00;100080.59;5105789;28;20031;-35
2023/05/01 03:31:22;;;;;;;13.50;9.13;;;;;;;10.36;100.00;100097.09;5106126;28;20041;-33
2023/05/01 03:33:48;;;;;;;12.32;8.52;;;;;;;10.19;100.00;100102.09;5105732;28;20365;-33
2023/05/01 03:36:13;;;;;;;20.77;12.88;;;;;;;10.40;100.00;100111.63;5105852;28;20027;-34
2023/05/01 03:38:38;;;;;;;29.25;19.73;;;;;;;10.52;100.00;100105.56;5105732;28;20024;-33
2023/05/01 03:41:04;;;;;;;24.95;17.92;;;;;;;10.46;100.00;100112.59;5106093;28;20039;-33
2023/05/01 03:43:30;;;;;;;27.27;18.65;;;;;;;10.22;100.00;100116.84;5105955;28;20040;-34
2023/05/01 03:45:56;;;;;;;31.10;20.17;;;;;;;10.39;100.00;100115.31;5108214;28;20037;-33
2023/05/01 03:48:22;;;;;;;25.83;17.42;;;;;;;10.74;100.00;100111.34;5109778;28;20507;-33
2023/05/01 03:50:47;;;;;;;30.80;17.75;;;;;;;10.53;100.00;100108.03;5109915;28;20038;-33
2023/05/01 03:53:13;;;;;;;28.08;12.70;;;;;;;10.55;100.00;100089.97;5110068;28;20030;-33
2023/05/01 03:55:39;;;;;;;17.77;11.20;;;;;;;10.55;100.00;100100.63;5109689;28;20031;-35
2023/05/01 03:58:05;;;;;;;13.35;8.85;;;;;;;11.01;100.00;100107.41;5109938;28;20027;-34
2023/05/01 04:00:32;;;;;;;19.05;9.02;;;;;;;11.14;100.00;100109.13;5109995;28;20054;-33
2023/05/01 04:02:57;;;;;;;11.82;8.55;;;;;;;11.24;100.00;100112.09;5109639;28;20024;-34
2023/05/01 04:05:22;;;;;;;11.15;8.88;;;;;;;11.05;100.00;100121.94;5109951;28;20034;-35
2023/05/01 04:07:48;;;;;;;11.40;8.15;;;;;;;11.16;100.00;100120.41;5109498;28;20019;-33
2023/05/01 04:10:13;;;;;;;11.75;8.23;;;;;;;11.31;100.00;100121.88;5109731;28;20424;-33
2023/05/01 04:12:39;;;;;;;11.00;8.82;;;;;;;11.26;100.00;100119.88;5109303;28;20466;-34
2023/05/01 04:15:06;;;;;;;11.55;8.00;;;;;;;11.52;100.00;100125.94;5109889;28;20024;-35
2023/05/01 04:17:31;;;;;;;11.95;8.52;;;;;;;11.58;100.00;100123.19;5109419;28;20032;-36
2023/05/01 04:19:57;;;;;;;11.50;9.02;;;;;;;11.77;100.00;100120.50;5109308;28;20069;-34
2023/05/01 04:22:22;;;;;;;10.88;8.65;;;;;;;11.84;100.00;100115.91;5109028;28;20507;-33
2023/05/01 04:24:48;;;;;;;12.32;8.93;;;;;;;11.98;100.00;100132.63;5142529;27;20104;-33
2023/05/01 04:27:14;;;;;;;10.90;8.43;;;;;;;12.04;100.00;100134.38;5109627;28;20032;-34
2023/05/01 04:29:40;;;;;;;10.57;8.63;;;;;;;12.24;100.00;100150.16;5109073;28;20138;-33
2023/05/01 04:32:06;;;;;;;12.48;8.25;;;;;;;11.99;100.00;100137.75;5109375;28;20080;-33
2023/05/01 04:34:32;;;;;;;12.38;8.30;;;;;;;12.17;100.00;100149.41;5108933;28;20092;-33
2023/05/01 04:36:57;;;;;;;10.77;8.55;;;;;;;12.21;100.00;100145.25;5109249;28;20466;-33
2023/05/01 04:39:23;;;;;;;10.98;8.20;;;;;;;12.29;100.00;100128.88;5109012;28;20027;-33
2023/05/01 04:41:49;;;;;;;11.48;8.02;;;;;;;12.57;100.00;100148.84;5109022;28;20035;-33
2023/05/01 04:44:14;;;;;;;12.30;8.00;;;;;;;12.50;100.00;100148.91;5109139;28;20054;-34
2023/05/01 04:46:40;;;;;;;10.27;7.55;;;;;;;12.52;100.00;100154.84;5108626;28;20196;-33
2023/05/01 04:49:05;;;;;;;15.65;8.15;;;;;;;12.75;100.00;100145.22;5108905;28;20081;-33
2023/05/01 04:51:30;;;;;;;9.50;7.70;;;;;;;13.09;100.00;100162.38;5108777;28;20053;-33
2023/05/01 04:53:56;;;;;;;10.43;7.60;;;;;;;13.18;100.00;100160.97;5108934;28;20027;-33
2023/05/01 04:56:21;;;;;;;12.23;8.45;;;;;;;13.31;100.00;100159.13;5108263;28;20027;-34
2023/05/01 04:58:47;;;;;;;9.85;8.07;;;;;;;13.20;100.00;100147.38;5108798;28;20019;-33
2023/05/01 05:01:12;;;;;;;11.48;7.35;;;;;;;13.53;100.00;100173.56;5108520;28;20023;-33
2023/05/01 05:03:38;;;;;;;11.57;7.13;;;;;;;13.61;100.00;100175.88;5108437;28;20032;-33
2023/05/01 05:06:03;;;;;;;11.20;7.63;;;;;;;13.97;98.35;100173.88;5108507;28;20031;-33
2023/05/01 05:08:29;;;;;;;9.20;6.95;;;;;;;14.00;98.08;100178.78;5108353;28;20044;-33
2023/05/01 05:10:59;;;;;;;10.95;6.78;;;;;;;14.27;97.81;100178.22;5108514;28;20015;-33
2023/05/01 05:13:25;;;;;;;9.52;7.05;;;;;;;14.18;97.77;100174.28;5108232;28;20035;-33
2023/05/01 05:15:50;;;;;;;11.02;7.78;;;;;;;14.32;96.08;100186.34;5108415;28;20038;-33
2023/05/01 05:18:16;;;;;;;10.13;7.30;;;;;;;14.31;97.03;100184.72;5107678;28;20024;-33
2023/05/01 05:20:41;;;;;;;9.30;7.10;;;;;;;14.73;95.33;100191.63;5108405;28;20020;-33
2023/05/01 05:23:07;;;;;;;8.73;5.82;;;;;;;14.72;93.47;100190.84;5107945;28;20131;-33
2023/05/01 05:25:32;;;;;;;8.85;6.20;;;;;;;14.90;94.32;100194.34;5108287;28;20054;-34
2023/05/01 05:27:59;;;;;;;8.30;5.47;;;;;;;15.06;92.66;100190.84;5108382;28;20039;-33
2023/05/01 05:30:25;;;;;;;8.85;6.32;;;;;;;15.06;92.28;100186.28;5107898;28;20031;-33
2023/05/01 05:32:51;;;;;;;8.80;6.15;;;;;;;15.33;92.83;100195.53;5108306;28;20051;-34
2023/05/01 05:35:16;;;;;;;8.65;5.50;;;;;;;15.19;91.97;100178.94;5107674;28;20070;-32
2023/05/01 05:37:42;;;;;;;8.80;6.13;;;;;;;15.42;91.32;100196.72;5108041;28;20047;-34
2023/05/01 05:40:08;;;;;;;8.27;5.88;;;;;;;15.15;88.76;100183.97;5107669;28;20030;-35
2023/05/01 05:42:33;;;;;;;8.93;5.70;;;;;;;15.43;89.48;100199.16;5108201;28;20023;-34
2023/05/01 05:44:59;;;;;;;7.78;5.57;;;;;;;15.52;88.46;100199.56;5106321;28;20027;-33
2023/05/01 05:47:25;;;;;;;9.00;6.00;;;;;;;15.71;87.71;100201.94;5107660;28;20492;-35
2023/05/01 05:49:50;;;;;;;8.38;6.10;;;;;;;15.51;89.49;100192.56;5107791;28;20029;-34
2023/05/01 05:52:16;;;;;;;8.10;5.80;;;;;;;15.72;88.43;100206.28;5107947;28;20111;-34
2023/05/01 05:54:42;;;;;;;10.52;5.35;;;;;;;15.89;88.07;100209.72;5107644;28;20035;-33
2023/05/01 05:57:07;;;;;;;8.07;5.55;;;;;;;15.97;85.78;100217.34;5107110;27;20019;-33
2023/05/01 05:59:33;;;;;;;8.32;5.50;;;;;;;16.20;84.48;100220.84;5107359;28;20114;-33
2023/05/01 06:01:59;;;;;;;7.25;4.68;;;;;;;16.25;84.45;100212.84;5106917;28;20110;-33
2023/05/01 06:04:24;;;;;;;8.77;4.85;;;;;;;16.37;82.68;100224.28;5107125;28;20389;-33
2023/05/01 06:06:50;;;;;;;6.97;4.90;;;;;;;16.22;82.85;100221.41;5106828;28;20566;-33
2023/05/01 06:09:17;;;;;;;6.55;4.50;;;;;;;16.20;83.08;100223.53;5106689;28;20793;-35
2023/05/01 06:11:44;;;;;;;6.47;4.60;;;;;;;16.30;82.01;100230.91;5107267;28;20500;-33
2023/05/01 06:14:09;;;;;;;6.65;4.43;;;;;;;16.39;82.18;100230.22;5107028;28;20538;-33
2023/05/01 06:16:35;;;;;;;7.15;4.75;;;;;;;16.64;81.75;100231.53;5107042;28;20031;-33
2023/05/01 06:19:00;;;;;;;7.97;4.70;;;;;;;16.51;80.55;100226.53;5106949;28;20034;-34
2023/05/01 06:21:26;;;;;;;7.45;5.30;;;;;;;16.72;81.53;100220.31;5107028;28;20136;-33
2023/05/01 06:23:51;;;;;;;7.38;4.60;;;;;;;17.06;81.04;100241.59;5106518;28;20114;-33
2023/05/01 06:26:17;;;;;;;6.90;4.38;;;;;;;17.35;78.35;100246.69;5107015;28;20020;-34
2023/05/01 06:28:42;;;;;;;8.32;4.70;;;;;;;17.35;79.75;100246.69;5106426;28;20023;-34
2023/05/01 06:31:08;;;;;;;7.55;4.57;;;;;;;17.45;77.55;100249.47;5107064;28;20080;-33
2023/05/01 06:33:33;;;;;;;6.72;4.57;;;;;;;17.61;78.20;100248.47;5106772;28;20019;-33
2023/05/01 06:35:59;;;;;;;7.28;4.28;;;;;;;17.52;77.37;100236.53;5106677;28;20031;-33
2023/05/01 06:38:27;;;;;;;7.38;3.85;;;;;;;17.68;73.45;100253.63;5106779;28;20042;-33
2023/05/01 06:40:52;;;;;;;9.13;5.10;;;;;;;17.68;76.44;100246.34;5106387;28;20027;-33
2023/05/01 06:43:18;;;;;;;6.32;4.05;;;;;;;17.82;78.77;100245.88;5106493;27;20023;-32
2023/05/01 06:45:44;;;;;;;7.00;4.15;;;;;;;18.23;74.08;100243.38;5106229;28;20076;-33
2023/05/01 06:48:10;;;;;;;7.55;4.45;;;;;;;18.29;72.98;100261.22;5106706;28;20031;-32
2023/05/01 06:50:35;;;;;;;6.80;4.32;;;;;;;18.43;76.39;100265.03;5106050;28;20041;-34
2023/05/01 06:53:01;;;;;;;5.72;3.83;;;;;;;18.59;72.43;100265.06;5106544;28;20443;-32
2023/05/01 06:55:30;;;;;;;6.63;4.30;;;;;;;18.53;73.21;100263.41;5106253;28;20414;-32
2023/05/01 06:57:56;;;;;;;5.75;4.40;;;;;;;18.76;71.45;100275.63;5099964;28;20039;-34
2023/05/01 07:00:22;;;;;;;6.65;4.55;;;;;;;18.57;69.99;100272.63;5098730;27;20028;-33
2023/05/01 07:02:48;;;;;;;7.57;4.35;;;;;;;18.59;71.28;100281.25;5090724;28;20038;-33
2023/05/01 07:05:13;;;;;;;8.23;4.85;;;;;;;18.41;69.25;100280.69;5085778;28;20036;-33
2023/05/01 07:07:39;;;;;;;6.55;4.25;;;;;;;18.45;69.11;100287.19;5085450;28;20515;-32
2023/05/01 07:10:07;;;;;;;9.43;4.60;;;;;;;18.74;69.08;100284.00;5085950;28;20047;-32
2023/05/01 07:12:35;;;;;;;6.65;4.22;;;;;;;18.77;67.30;100290.75;5085770;28;20133;-33
2023/05/01 07:15:03;;;;;;;6.60;3.67;;;;;;;18.84;66.34;100297.56;5085554;28;20121;-33
2023/05/01 07:17:28;;;;;;;5.95;3.83;;;;;;;19.14;65.71;100301.34;5085989;28;20119;-33
2023/05/01 07:19:56;;;;;;;6.53;4.25;;;;;;;18.93;65.13;100307.84;5083190;28;20680;-33
2023/05/01 07:22:24;;;;;;;8.13;4.32;;;;;;;18.98;64.95;100310.53;5085699;28;20024;-33
2023/05/01 07:24:49;;;;;;;6.75;4.15;;;;;;;19.32;65.55;100307.31;5085509;28;20032;-34
2023/05/01 07:27:17;;;;;;;13.18;4.40;;;;;;;19.50;66.67;100306.75;5085296;28;20024;-33
2023/05/01 08:14:43;;;;;;;4.32;3.08;;;;;;;20.72;57.73;100310.19;5093604;28;20042;-32
2023/05/01 08:17:08;;;;;;;5.97;3.33;;;;;;;21.08;55.20;100315.34;5109261;28;20031;-32
2023/05/01 08:19:34;;;;;;;6.43;3.42;;;;;;;21.18;53.09;100326.09;5108277;28;20016;-33
2023/05/01 08:21:59;;;;;;;5.75;3.42;;;;;;;21.07;54.97;100322.66;5104639;28;20104;-33
2023/05/01 08:24:24;;;;;;;7.68;3.30;;;;;;;21.09;52.75;100325.09;5104661;28;20020;-32
2023/05/01 08:26:50;;;;;;;5.30;4.00;;;;;;;21.23;49.81;100336.94;5110035;28;20027;-33
2023/05/01 08:29:15;;;;;;;6.85;3.40;;;;;;;21.37;50.37;100322.69;5104643;28;20032;-32
2023/05/01 08:31:42;;;;;;;5.20;3.35;;;;;;;21.55;50.91;100332.88;5111480;27;20016;-34
2023/05/01 08:34:08;;;;;;;5.28;3.00;;;;;;;21.41;45.92;100338.16;5114750;27;20051;-32
2023/05/01 08:36:33;;;;;;;4.85;3.20;;;;;;;21.46;46.29;100324.56;5109699;27;20051;-32
2023/05/01 08:38:58;;;;;;;7.25;3.55;;;;;;;21.79;46.57;100332.13;5109524;28;20049;-32
2023/05/01 08:41:26;;;;;;;7.45;3.60;;;;;;;21.64;47.23;100309.47;5109333;28;20389;-34
2023/05/01 08:43:52;;;;;;;6.03;2.95;;;;;;;21.67;46.93;100332.50;5109072;28;20105;-32
2023/05/01 08:46:37;;;;;;;5.53;2.92;;;;;;;21.18;45.60;100325.31;5109331;28;20047;-31
2023/05/01 08:49:05;;;;;;;5.22;3.13;;;;;;;21.55;44.87;100327.44;5108713;28;20031;-32
2023/05/01 08:51:33;;;;;;;6.53;3.58;;;;;;;22.08;44.63;100313.06;5108920;28;20019;-32
2023/05/01 08:54:01;;;;;;;4.63;2.97;;;;;;;22.04;43.49;100342.69;5109246;28;20027;-32
2023/05/01 08:56:28;;;;;;;5.15;2.92;;;;;;;22.21;42.73;100325.13;5108946;28;20024;-33
2023/05/01 08:58:55;;;;;;;4.15;2.60;;;;;;;22.11;40.68;100333.38;5102844;28;20535;-32
2023/05/01 09:01:22;;;;;;;5.50;3.10;;;;;;;22.23;41.45;100333.78;5101069;28;20114;-32
2023/05/01 09:03:49;;;;;;;3.47;2.63;;;;;;;21.54;43.47;100317.69;5108762;28;20057;-33
2023/05/01 09:06:15;;;;;;;4.85;2.65;;;;;;;22.08;44.49;100332.88;5108955;28;20031;-34
2023/05/01 09:08:41;;;;;;;4.25;2.72;;;;;;;22.35;44.53;100327.97;5108651;28;20032;-33
2023/05/01 09:11:06;;;;;;;5.28;2.80;;;;;;;22.39;43.68;100329.84;5108954;28;20404;-32
2023/05/01 09:13:32;;;;;;;5.00;2.75;;;;;;;22.10;44.95;100326.34;5108187;28;20517;-33
2023/05/01 09:15:59;;;;;;;4.70;2.70;;;;;;;22.27;43.89;100313.94;5108653;28;20423;-32
2023/05/01 09:18:24;;;;;;;4.70;2.90;;;;;;;22.13;43.33;100315.72;5108902;27;20031;-32
2023/05/01 09:20:50;;;;;;;4.15;2.80;;;;;;;22.60;41.13;100324.94;5108003;27;20285;-32
2023/05/01 09:23:16;;;;;;;5.53;2.90;;;;;;;22.67;39.23;100319.13;5108569;28;20028;-31
2023/05/01 09:25:42;;;;;;;6.18;2.78;;;;;;;23.00;43.37;100317.25;5108264;28;20108;-33
2023/05/01 09:28:07;;;;;;;5.63;2.80;;;;;;;22.73;44.83;100301.63;5108484;28;20148;-32
2023/05/01 09:30:35;;;;;;;5.07;3.08;;;;;;;23.00;45.11;100311.81;5107950;28;20446;-32
2023/05/01 09:33:09;;;;;;;5.22;3.10;;;;;;;22.86;43.80;100298.19;5108542;28;20019;-32
2023/05/01 09:35:54;;;;;;;4.57;2.60;;;;;;;23.13;45.14;100315.75;5108348;28;20027;-32
2023/05/01 09:38:24;;;;;;;5.65;2.70;;;;;;;22.73;43.27;100306.28;5108473;28;20112;-33
2023/05/01 09:40:51;;;;;;;5.03;2.70;;;;;;;23.22;43.17;100318.59;5108106;28;20023;-33
2023/05/01 09:43:27;;;;;;;5.80;2.87;;;;;;;23.60;45.56;100319.31;5106999;28;20039;-32
2023/05/01 09:46:08;;;;;;;9.13;3.00;;;;;;;23.82;40.48;100310.50;5108090;28;20027;-32
2023/05/01 09:48:34;;;;;;;5.00;3.25;;;;;;;23.66;43.11;100320.03;5107771;28;20039;-33
2023/05/01 09:50:59;;;;;;;5.05;3.10;;;;;;;23.98;43.07;100308.25;5108165;28;20027;-32
2023/05/01 09:53:38;;;;;;;9.82;2.88;;;;;;;23.86;39.87;100318.84;5107651;28;20039;-32
2023/05/01 09:56:04;;;;;;;8.15;2.72;;;;;;;24.30;37.30;100308.47;5107691;28;20039;-33
2023/05/01 09:58:29;;;;;;;4.43;3.08;;;;;;;24.23;37.07;100319.75;5108062;28;20023;-33
2023/05/01 10:00:55;;;;;;;8.02;3.05;;;;;;;24.17;39.05;100326.41;5107316;28;20039;-34
2023/05/01 10:03:21;;;;;;;4.18;2.70;;;;;;;23.99;38.77;100311.81;5108009;28;20509;-34
2023/05/01 10:05:46;;;;;;;5.65;3.00;;;;;;;23.92;38.39;100309.47;5107545;28;20023;-32
2023/05/01 10:08:13;;;;;;;4.78;2.95;;;;;;;24.33;39.42;100305.91;5107878;28;20077;-32
2023/05/01 10:10:40;;;;;;;4.63;3.23;;;;;;;24.23;37.97;100308.84;5107642;28;20137;-32
2023/05/01 10:13:16;;;;;;;4.63;2.92;;;;;;;24.08;38.02;100318.16;5107082;28;20353;-32
2023/05/01 10:15:43;;;;;;;5.22;3.05;;;;;;;24.05;37.09;100322.28;5107259;28;20051;-32
2023/05/01 10:18:10;;;;;;;4.50;2.80;;;;;;;23.84;35.01;100331.94;5107310;28;20110;-33
2023/05/01 10:20:35;;;;;;;8.52;3.13;;;;;;;24.20;37.25;100323.09;5107317;28;20024;-32
2023/05/01 10:23:04;;;;;;;5.50;2.70;;;;;;;24.65;37.39;100315.06;5107348;28;20084;-32
2023/05/01 10:25:31;;;;;;;5.22;2.78;;;;;;;24.57;37.38;100313.06;5107001;28;20499;-33
2023/05/01 10:27:57;;;;;;;3.92;2.83;;;;;;;24.46;36.22;100302.38;5107164;28;20106;-32
2023/05/01 10:30:25;;;;;;;6.15;3.10;;;;;;;24.43;37.77;100296.72;5107133;28;20065;-32
2023/05/01 10:32:51;;;;;;;7.15;3.08;;;;;;;24.66;36.48;100316.66;5106674;28;20040;-32
2023/05/01 10:35:26;;;;;;;4.57;2.78;;;;;;;24.77;35.18;100315.34;5107235;28;20034;-32
2023/05/01 10:38:01;;;;;;;6.40;2.92;;;;;;;25.16;34.63;100297.50;5107024;28;20073;-32
2023/05/01 10:40:38;;;;;;;4.55;3.33;;;;;;;24.96;33.81;100320.63;5106874;28;20069;-33
2023/05/01 10:43:19;;;;;;;5.65;3.40;;;;;;;25.10;34.90;100312.38;5106970;28;20097;-32
2023/05/01 10:45:47;;;;;;;6.03;3.60;;;;;;;25.85;34.40;100315.41;5106905;28;20044;-33
2023/05/01 10:48:43;;;;;;;4.63;2.75;;;;;;;25.49;33.01;100313.63;5106867;28;20047;-32
2023/05/01 10:51:10;;;;;;;8.67;3.20;;;;;;;24.40;33.97;100324.59;5106902;28;20055;-32
2023/05/01 10:53:45;;;;;;;6.32;3.35;;;;;;;25.29;34.36;100311.41;5106268;28;20161;-33
2023/05/01 10:56:24;;;;;;;6.60;3.20;;;;;;;25.19;34.33;100324.19;5106831;28;20034;-33
2023/05/01 10:58:52;;;;;;;4.47;2.88;;;;;;;24.94;32.58;100322.84;5106725;28;20031;-32
2023/05/01 11:01:34;;;;;;;3.92;2.72;;;;;;;25.14;32.19;100315.31;5106637;28;20059;-32
2023/05/01 11:04:06;;;;;;;4.85;2.83;;;;;;;25.75;32.73;100318.41;5106622;28;20039;-34
2023/05/01 11:06:33;;;;;;;5.05;2.78;;;;;;;26.11;34.03;100314.69;5106271;28;20036;-32
2023/05/01 11:08:59;;;;;;;5.22;3.05;;;;;;;25.72;33.07;100321.75;5106701;28;20039;-33
2023/05/01 11:11:25;;;;;;;6.95;3.08;;;;;;;25.08;34.11;100328.25;5106212;28;20031;-32
2023/05/01 11:14:07;;;;;;;8.18;3.40;;;;;;;24.36;36.83;100327.13;5106186;28;20511;-32
2023/05/01 11:16:32;;;;;;;8.00;3.20;;;;;;;24.69;35.58;100324.25;5106257;28;20080;-33
2023/05/01 11:18:58;;;;;;;4.60;3.03;;;;;;;24.65;32.96;100331.44;5106392;28;20432;-33
2023/05/01 11:21:32;;;;;;;8.77;3.05;;;;;;;25.76;32.86;100329.00;5106291;28;20111;-32
2023/05/01 11:23:59;;;;;;;4.80;2.60;;;;;;;25.85;32.23;100327.13;5106533;28;20028;-32
2023/05/01 11:26:25;;;;;;;7.53;3.85;;;;;;;25.89;32.90;100329.22;5106533;28;20024;-32
2023/05/01 11:28:54;;;;;;;5.63;2.88;;;;;;;25.17;34.91;100309.22;5106174;28;20173;-32
2023/05/01 11:31:20;;;;;;;5.57;3.50;;;;;;;25.37;35.92;100329.75;5106373;28;20030;-32
2023/05/01 11:33:46;;;;;;;5.10;2.88;;;;;;;24.73;34.23;100322.53;5106133;28;20057;-32
2023/05/01 11:36:13;;;;;;;7.05;3.28;;;;;;;25.60;32.90;100336.00;5106283;28;20056;-33
2023/05/01 11:38:48;;;;;;;5.35;2.83;;;;;;;24.94;33.54;100322.03;5106168;28;20858;-33
2023/05/01 11:41:14;;;;;;;4.90;3.08;;;;;;;24.71;35.66;100319.28;5105909;28;20031;-32
2023/05/01 11:43:54;;;;;;;5.00;2.90;;;;;;;24.28;34.52;100333.28;5105782;28;20431;-33
2023/05/01 11:46:24;;;;;;;6.47;3.35;;;;;;;24.06;34.91;100320.38;5105793;28;20416;-32
2023/05/01 11:48:49;;;;;;;4.68;3.00;;;;;;;23.62;35.20;100327.97;5106114;28;20106;-33
2023/05/01 11:51:15;;;;;;;5.22;2.80;;;;;;;23.93;35.47;100316.53;5105770;28;20020;-33
2023/05/01 11:53:41;;;;;;;5.68;2.92;;;;;;;23.88;34.53;100308.44;5105917;28;20051;-32
2023/05/01 11:56:23;;;;;;;5.32;2.92;;;;;;;23.34;36.22;100313.50;5105949;28;20034;-33
2023/05/01 11:58:48;;;;;;;4.15;2.67;;;;;;;23.58;35.24;100309.78;5105931;28;20096;-32
2023/05/01 12:01:14;;;;;;;7.55;3.13;;;;;;;23.83;34.62;100312.09;5106137;28;20763;-32
2023/05/01 12:03:41;;;;;;;5.22;2.88;;;;;;;24.01;35.40;100309.59;5105278;28;20115;-32
2023/05/01 12:06:09;;;;;;;5.00;3.17;;;;;;;24.38;34.59;100303.09;5105652;28;20020;-32
2023/05/01 12:08:35;;;;;;;4.95;2.95;;;;;;;24.65;34.72;100302.25;5109939;27;20028;-32